createdAt,value
2023-03-22T00:02:04.515Z,88.52
2023-03-22T00:04:33.840Z,88.93
2023-03-22T00:07:03.064Z,88.95
2023-03-22T00:09:32.946Z,88.82
2023-03-22T00:12:02.164Z,89.02
2023-03-22T00:14:31.480Z,89.24
2023-03-22T00:17:00.682Z,89.33
2023-03-22T00:19:30.323Z,89.68
2023-03-22T00:22:00.752Z,89.84
2023-03-22T00:24:30.315Z,90.07
2023-03-22T00:27:00.363Z,89.85
2023-03-22T00:29:29.860Z,89.21
2023-03-22T00:31:59.429Z,89.54
2023-03-22T00:34:33.424Z,89.60
2023-03-22T00:37:04.694Z,89.82
2023-03-22T00:39:34.277Z,89.92
2023-03-22T00:42:06.172Z,89.81
2023-03-22T00:44:35.839Z,89.72
2023-03-22T00:47:05.331Z,90.04
2023-03-22T00:49:36.497Z,90.06
2023-03-22T00:52:06.546Z,90.05
2023-03-22T00:54:35.957Z,90.25
2023-03-22T00:57:05.703Z,90.34
2023-03-22T00:59:36.760Z,90.59
2023-03-22T01:02:06.766Z,90.41
2023-03-22T01:04:36.170Z,90.59
2023-03-22T01:07:05.857Z,90.95
2023-03-22T01:09:36.798Z,91.19
2023-03-22T01:12:06.165Z,91.35
2023-03-22T01:14:35.430Z,91.64
2023-03-22T01:17:04.865Z,91.82
2023-03-22T01:19:36.197Z,91.79
2023-03-22T01:22:07.160Z,92.01
2023-03-22T01:24:37.299Z,91.98
2023-03-22T01:27:07.168Z,91.62
2023-03-22T01:29:36.796Z,91.66
2023-03-22T01:32:06.797Z,91.75
2023-03-22T01:34:36.516Z,91.66
2023-03-22T01:37:06.438Z,91.63
2023-03-22T01:39:36.411Z,92.58
2023-03-22T01:42:06.995Z,92.70
2023-03-22T01:44:39.045Z,92.78
2023-03-22T01:47:11.173Z,92.67
2023-03-22T01:49:41.491Z,92.92
2023-03-22T01:52:13.172Z,93.32
2023-03-22T01:54:48.977Z,93.57
2023-03-22T01:57:33.541Z,93.79
2023-03-22T02:00:04.920Z,93.89
2023-03-22T02:02:46.126Z,94.05
2023-03-22T02:05:18.062Z,94.26
2023-03-22T02:07:47.798Z,94.23
2023-03-22T02:10:20.496Z,94.25
2023-03-22T02:12:57.878Z,94.13
2023-03-22T02:15:47.350Z,94.15
2023-03-22T02:18:45.783Z,94.07
2023-03-22T02:21:33.424Z,93.88
2023-03-22T02:24:14.147Z,93.76
2023-03-22T02:27:12.480Z,94.13
2023-03-22T02:29:48.316Z,93.63
2023-03-22T02:32:37.530Z,93.45
2023-03-22T02:35:36.496Z,93.40
2023-03-22T02:38:14.799Z,93.50
2023-03-22T02:41:13.901Z,93.37
2023-03-22T02:44:09.116Z,93.22
2023-03-22T02:47:04.265Z,92.92
2023-03-22T02:49:47.560Z,93.46
2023-03-22T02:52:26.860Z,93.14
2023-03-22T02:55:11.436Z,92.75
2023-03-22T02:57:58.366Z,93.08
2023-03-22T03:00:28.107Z,93.23
2023-03-22T03:03:02.037Z,93.19
2023-03-22T03:05:30.910Z,93.21
2023-03-22T03:08:01.815Z,93.35
2023-03-22T03:10:32.705Z,93.71
2023-03-22T03:13:02.304Z,93.15
2023-03-22T03:15:31.704Z,93.16
2023-03-22T03:18:16.710Z,93.03
2023-03-22T03:21:05.658Z,93.05
2023-03-22T03:23:54.220Z,93.21
2023-03-22T03:26:53.820Z,93.56
2023-03-22T03:29:41.588Z,93.29
2023-03-22T03:32:19.944Z,93.26
2023-03-22T03:34:53.014Z,93.72
2023-03-22T03:37:26.279Z,93.88
2023-03-22T03:40:01.722Z,93.79
2023-03-22T03:42:31.969Z,93.83
2023-03-22T03:45:01.365Z,93.96
2023-03-22T03:47:33.552Z,94.35
2023-03-22T03:50:04.317Z,94.36
2023-03-22T03:52:33.950Z,94.58
2023-03-22T03:55:03.153Z,94.59
2023-03-22T03:57:34.521Z,94.83
2023-03-22T04:00:04.295Z,94.62
2023-03-22T04:02:45.568Z,94.82
2023-03-22T04:05:16.906Z,94.31
2023-03-22T04:07:46.770Z,94.53
2023-03-22T04:10:16.658Z,94.87
2023-03-22T04:12:45.939Z,94.42
2023-03-22T04:15:17.116Z,94.59
2023-03-22T04:17:48.164Z,94.40
2023-03-22T04:20:17.793Z,94.64
2023-03-22T04:22:49.087Z,94.37
2023-03-22T04:25:20.755Z,94.38
2023-03-22T04:27:52.124Z,94.30
2023-03-22T04:30:22.937Z,94.03
2023-03-22T04:33:05.799Z,93.84
2023-03-22T04:35:36.992Z,93.69
2023-03-22T04:38:07.908Z,93.61
2023-03-22T04:40:38.969Z,93.31
2023-03-22T04:43:14.003Z,93.40
2023-03-22T04:45:48.894Z,93.38
2023-03-22T04:48:21.677Z,93.24
2023-03-22T04:50:53.420Z,93.79
2023-03-22T04:53:25.467Z,93.86
2023-03-22T04:55:59.412Z,93.92
2023-03-22T04:58:30.438Z,93.23
2023-03-22T05:00:59.747Z,93.23
2023-03-22T05:03:29.183Z,93.28
2023-03-22T05:06:01.016Z,93.73
2023-03-22T05:08:32.491Z,93.28
2023-03-22T05:11:11.731Z,93.17
2023-03-22T05:13:42.259Z,93.37
2023-03-22T05:16:11.797Z,93.24
2023-03-22T05:18:44.532Z,93.09
2023-03-22T05:21:16.468Z,92.41
2023-03-22T05:23:47.788Z,92.60
2023-03-22T05:26:19.572Z,92.84
2023-03-22T05:28:48.993Z,93.13
2023-03-22T05:31:21.763Z,92.89
2023-03-22T05:33:53.480Z,92.59
2023-03-22T05:36:24.245Z,92.36
2023-03-22T05:38:58.622Z,92.40
2023-03-22T05:41:28.031Z,92.56
2023-03-22T05:43:57.207Z,91.97
2023-03-22T05:46:26.664Z,91.86
2023-03-22T05:49:16.092Z,91.87
2023-03-22T05:51:45.815Z,91.95
2023-03-22T05:54:16.016Z,91.42
2023-03-22T05:56:47.793Z,91.17
2023-03-22T05:59:17.126Z,91.18
2023-03-22T06:01:46.932Z,91.64
2023-03-22T06:04:18.861Z,91.66
2023-03-22T06:06:50.538Z,91.65
2023-03-22T06:09:24.258Z,91.62
2023-03-22T06:11:53.868Z,91.45
2023-03-22T06:14:24.844Z,90.59
2023-03-22T06:16:55.862Z,90.74
2023-03-22T06:19:26.987Z,90.67
2023-03-22T06:21:56.859Z,90.33
2023-03-22T06:24:27.778Z,89.11
2023-03-22T06:26:57.328Z,89.14
2023-03-22T06:29:27.163Z,87.45
2023-03-22T06:31:58.228Z,86.56
2023-03-22T06:34:27.649Z,86.70
2023-03-22T06:36:57.069Z,87.05
2023-03-22T06:39:28.487Z,86.51
2023-03-22T06:41:57.763Z,87.25
2023-03-22T06:44:27.531Z,87.63
2023-03-22T06:47:01.668Z,87.09
2023-03-22T06:49:35.888Z,87.34
2023-03-22T06:52:05.765Z,86.72
2023-03-22T06:54:36.022Z,86.62
2023-03-22T06:57:05.547Z,86.56
2023-03-22T06:59:36.083Z,86.18
2023-03-22T07:02:06.981Z,86.14
2023-03-22T07:04:36.848Z,86.28
2023-03-22T07:07:07.015Z,85.92
2023-03-22T07:09:36.950Z,85.82
2023-03-22T07:12:09.487Z,85.02
2023-03-22T07:14:39.611Z,85.27
2023-03-22T07:17:14.521Z,85.71
2023-03-22T07:19:44.974Z,85.46
2023-03-22T07:22:15.515Z,84.38
2023-03-22T07:24:56.271Z,84.68
2023-03-22T07:27:17.634Z,83.42
2023-03-22T07:29:47.633Z,83.12
2023-03-22T07:32:16.986Z,83.23
2023-03-22T07:34:48.333Z,82.22
2023-03-22T07:37:19.252Z,81.72
2023-03-22T07:39:48.882Z,82.02
2023-03-22T07:42:18.189Z,81.46
2023-03-22T07:44:55.141Z,82.23
2023-03-22T07:47:39.895Z,81.65
2023-03-22T07:50:12.966Z,81.94
2023-03-22T07:52:44.443Z,81.75
2023-03-22T07:55:15.420Z,81.60
2023-03-22T07:57:44.887Z,80.73
2023-03-22T08:00:17.130Z,80.96
2023-03-22T08:02:48.088Z,80.74
2023-03-22T08:05:19.310Z,79.53
2023-03-22T08:07:51.593Z,79.59
2023-03-22T08:10:20.977Z,80.93
2023-03-22T08:12:50.938Z,79.91
2023-03-22T08:15:22.674Z,80.20
2023-03-22T08:17:53.129Z,79.81
2023-03-22T08:20:27.489Z,79.93
2023-03-22T08:22:58.592Z,80.65
2023-03-22T08:25:47.808Z,80.55
2023-03-22T08:28:17.764Z,80.39
2023-03-22T08:30:48.729Z,79.65
2023-03-22T08:33:19.891Z,80.01
2023-03-22T08:35:49.397Z,80.09
2023-03-22T08:38:20.008Z,79.72
2023-03-22T08:40:50.969Z,79.57
2023-03-22T08:43:21.963Z,78.32
2023-03-22T08:45:52.784Z,78.47
2023-03-22T08:48:22.598Z,79.34
2023-03-22T08:51:09.006Z,78.80
2023-03-22T08:53:42.760Z,80.20
2023-03-22T08:56:27.267Z,79.07
2023-03-22T08:58:58.193Z,80.99
2023-03-22T09:01:46.113Z,81.40
2023-03-22T09:04:15.669Z,81.93
2023-03-22T09:06:46.983Z,81.97
2023-03-22T09:09:16.587Z,83.41
2023-03-22T09:11:47.685Z,83.23
2023-03-22T09:14:16.974Z,82.70
2023-03-22T09:16:48.739Z,83.08
2023-03-22T09:19:18.511Z,82.79
2023-03-22T09:21:48.544Z,83.53
2023-03-22T09:24:19.509Z,83.28
2023-03-22T09:26:51.329Z,83.39
2023-03-22T09:29:21.177Z,84.65
2023-03-22T09:31:51.136Z,85.44
2023-03-22T09:34:22.272Z,86.04
2023-03-22T09:36:53.168Z,86.13
2023-03-22T09:39:23.477Z,87.10
2023-03-22T09:41:57.238Z,87.31
2023-03-22T09:44:29.545Z,88.58
2023-03-22T09:47:01.210Z,88.28
2023-03-22T09:49:47.201Z,89.12
2023-03-22T09:52:10.355Z,89.76
2023-03-22T09:54:39.573Z,90.17
2023-03-22T09:57:32.599Z,89.78
2023-03-22T10:00:21.045Z,91.16
2023-03-22T10:03:11.006Z,91.45
2023-03-22T10:05:45.829Z,93.43
2023-03-22T10:08:42.180Z,93.20
2023-03-22T10:11:20.353Z,93.95
2023-03-22T10:13:58.806Z,91.66
2023-03-22T10:16:32.384Z,91.88
2023-03-22T10:19:07.347Z,93.06
2023-03-22T10:21:37.374Z,93.37
2023-03-22T10:24:16.289Z,91.39
2023-03-22T10:26:49.542Z,91.59
2023-03-22T10:29:37.297Z,91.14
2023-03-22T10:32:28.098Z,92.97
2023-03-22T10:34:57.950Z,92.04
2023-03-22T10:37:32.633Z,92.33
2023-03-22T10:40:08.106Z,92.58
2023-03-22T10:42:38.784Z,92.29
2023-03-22T10:45:11.590Z,93.27
2023-03-22T10:47:46.662Z,93.28
2023-03-22T10:50:28.743Z,93.33
2023-03-22T10:53:04.431Z,92.30
2023-03-22T10:55:33.747Z,92.34
2023-03-22T10:58:20.591Z,91.94
2023-03-22T11:00:55.295Z,92.38
2023-03-22T11:03:34.027Z,92.04
2023-03-22T11:06:12.422Z,90.21
2023-03-22T11:08:50.035Z,89.37
2023-03-22T11:11:31.454Z,89.75
2023-03-22T11:14:10.310Z,90.26
2023-03-22T11:16:59.912Z,89.33
2023-03-22T11:19:35.593Z,89.83
2023-03-22T11:22:24.876Z,88.17
2023-03-22T11:24:56.825Z,89.16
2023-03-22T11:27:33.172Z,89.40
2023-03-22T11:30:11.332Z,88.00
2023-03-22T11:32:41.722Z,87.87
2023-03-22T11:35:20.736Z,89.20
2023-03-22T11:37:52.748Z,88.43
2023-03-22T11:40:31.357Z,87.89
2023-03-22T11:43:06.358Z,86.44
2023-03-22T11:45:37.771Z,86.65
2023-03-22T11:48:10.599Z,87.37
2023-03-22T11:50:41.821Z,87.22
2023-03-22T11:53:19.617Z,86.82
2023-03-22T11:55:51.646Z,86.88
2023-03-22T11:58:32.372Z,86.78
2023-03-22T12:01:03.393Z,86.74
2023-03-22T12:03:38.869Z,87.30
2023-03-22T12:06:09.929Z,87.53
2023-03-22T12:09:00.358Z,87.64
2023-03-22T12:11:38.762Z,87.68
2023-03-22T12:14:13.680Z,87.33
2023-03-22T12:16:55.384Z,87.97
2023-03-22T12:19:30.688Z,87.29
2023-03-22T12:22:00.961Z,86.77
2023-03-22T12:24:32.630Z,87.12
2023-03-22T12:27:07.913Z,86.94
2023-03-22T12:29:39.662Z,86.84
2023-03-22T12:32:15.707Z,87.03
2023-03-22T12:34:48.719Z,87.63
2023-03-22T12:37:23.630Z,87.11
2023-03-22T12:40:11.363Z,86.70
2023-03-22T12:43:01.918Z,86.45
2023-03-22T12:45:33.218Z,86.63
2023-03-22T12:48:09.044Z,86.74
2023-03-22T12:50:41.984Z,86.82
2023-03-22T12:53:19.445Z,86.20
2023-03-22T12:55:49.684Z,86.24
2023-03-22T12:58:21.967Z,85.80
2023-03-22T13:00:58.298Z,86.01
2023-03-22T13:03:31.268Z,86.24
2023-03-22T13:06:03.728Z,86.45
2023-03-22T13:09:04.729Z,86.45
2023-03-22T13:11:34.039Z,86.08
2023-03-22T13:14:03.898Z,86.97
2023-03-22T13:16:54.068Z,87.12
2023-03-22T13:19:29.829Z,86.24
2023-03-22T13:22:26.398Z,86.79
2023-03-22T13:25:01.125Z,86.65
2023-03-22T13:28:06.645Z,86.91
2023-03-22T13:30:50.715Z,87.12
2023-03-22T13:33:23.941Z,87.37
2023-03-22T13:35:57.300Z,87.15
2023-03-22T13:38:29.761Z,86.68
2023-03-22T13:41:16.643Z,86.90
2023-03-22T13:43:54.845Z,87.81
2023-03-22T13:46:27.494Z,88.80
2023-03-22T13:49:05.485Z,90.79
2023-03-22T13:51:35.355Z,90.95
2023-03-22T13:54:17.156Z,91.84
2023-03-22T13:56:56.477Z,91.31
2023-03-22T13:59:30.602Z,91.83
2023-03-22T14:02:23.600Z,92.01
2023-03-22T14:05:07.720Z,91.44
2023-03-22T14:08:19.998Z,91.04
2023-03-22T14:11:12.228Z,91.02
2023-03-22T14:13:52.430Z,90.32
2023-03-22T14:16:51.754Z,90.75
2023-03-22T14:19:29.472Z,91.96
